createdAt,value
2022-07-29T00:02:26.457Z,100752.91
2022-07-29T00:04:53.630Z,100752.41
2022-07-29T00:07:20.818Z,100754.31
2022-07-29T00:09:51.902Z,100753.78
2022-07-29T00:12:25.685Z,100751.97
2022-07-29T00:14:57.325Z,100758.56
2022-07-29T00:17:26.779Z,100754.44
2022-07-29T00:19:53.439Z,100755.56
2022-07-29T00:22:21.283Z,100753.66
2022-07-29T00:24:51.199Z,100755.41
2022-07-29T00:27:18.632Z,100758.03
2022-07-29T00:29:45.384Z,100759.78
2022-07-29T00:32:12.124Z,100758.69
2022-07-29T00:34:57.290Z,100750.69
2022-07-29T00:37:24.034Z,100748.50
2022-07-29T00:39:50.795Z,100753.38
2022-07-29T00:42:18.201Z,100757.44
2022-07-29T00:44:44.971Z,100748.34
2022-07-29T00:47:12.419Z,100755.72
2022-07-29T00:49:41.131Z,100755.63
2022-07-29T00:52:08.890Z,100758.31
2022-07-29T00:54:35.761Z,100756.50
2022-07-29T00:57:08.640Z,100751.63
2022-07-29T00:59:36.004Z,100755.84
2022-07-29T01:02:04.498Z,100744.50
2022-07-29T01:04:32.330Z,100743.75
2022-07-29T01:07:00.294Z,100760.66
2022-07-29T01:09:34.361Z,100748.56
2022-07-29T01:12:16.414Z,100753.81
2022-07-29T01:14:43.795Z,100749.81
2022-07-29T01:17:17.035Z,100752.19
2022-07-29T01:19:53.942Z,100754.75
2022-07-29T01:22:35.817Z,100748.78
2022-07-29T01:25:25.397Z,100752.69
2022-07-29T01:28:09.192Z,100753.16
2022-07-29T01:30:40.368Z,100750.09
2022-07-29T01:33:34.683Z,100760.44
2022-07-29T01:36:05.897Z,100758.53
2022-07-29T01:38:32.552Z,100759.63
2022-07-29T01:41:09.572Z,100761.75
2022-07-29T01:43:50.592Z,100753.50
2022-07-29T01:46:25.628Z,100756.41
2022-07-29T01:48:58.692Z,100765.06
2022-07-29T01:51:38.685Z,100750.81
2022-07-29T01:54:11.835Z,100748.81
2022-07-29T01:56:40.183Z,100746.34
2022-07-29T01:59:09.348Z,100742.47
2022-07-29T02:01:40.278Z,100744.44
2022-07-29T02:04:11.108Z,100753.09
2022-07-29T02:06:41.083Z,100749.75
2022-07-29T02:09:09.551Z,100739.00
2022-07-29T02:11:38.155Z,100744.44
2022-07-29T02:14:06.375Z,100747.13
2022-07-29T02:16:36.514Z,100742.84
2022-07-29T02:19:04.346Z,100746.03
2022-07-29T02:21:33.064Z,100743.06
2022-07-29T02:24:02.586Z,100746.56
2022-07-29T02:26:31.726Z,100752.94
2022-07-29T02:29:00.639Z,100746.22
2022-07-29T02:31:33.504Z,100743.88
2022-07-29T02:34:03.139Z,100743.66
2022-07-29T02:36:31.783Z,100751.28
2022-07-29T02:39:01.651Z,100745.41
2022-07-29T02:41:47.538Z,100752.63
2022-07-29T02:44:20.452Z,100751.81
2022-07-29T02:46:50.398Z,100747.78
2022-07-29T02:49:32.336Z,100745.09
2022-07-29T02:52:02.823Z,100751.81
2022-07-29T02:54:34.747Z,100756.72
2022-07-29T02:57:07.267Z,100759.66
2022-07-29T02:59:37.442Z,100755.34
2022-07-29T03:02:06.031Z,100750.09
2022-07-29T03:04:35.386Z,100757.28
2022-07-29T03:07:03.397Z,100754.38
2022-07-29T03:09:31.182Z,100755.47
2022-07-29T03:11:58.533Z,100756.03
2022-07-29T03:14:25.477Z,100755.47
2022-07-29T03:16:53.426Z,100747.47
2022-07-29T03:19:21.407Z,100748.84
2022-07-29T03:21:48.238Z,100749.63
2022-07-29T03:24:32.839Z,100746.88
2022-07-29T03:26:59.999Z,100750.44
2022-07-29T03:32:00.253Z,100746.94
2022-07-29T03:34:26.826Z,100748.63
2022-07-29T03:36:53.392Z,100743.00
2022-07-29T03:39:24.291Z,100752.63
2022-07-29T03:41:55.285Z,100746.16
2022-07-29T03:44:23.674Z,100745.53
2022-07-29T03:46:53.030Z,100749.53
2022-07-29T03:49:21.811Z,100752.41
2022-07-29T03:51:48.674Z,100759.91
2022-07-29T03:54:16.008Z,100759.59
2022-07-29T03:56:47.250Z,100757.88
2022-07-29T03:59:16.047Z,100759.47
2022-07-29T04:01:43.531Z,100760.97
2022-07-29T04:04:10.335Z,100759.72
2022-07-29T04:06:44.314Z,100755.72
2022-07-29T04:09:12.705Z,100751.41
2022-07-29T04:12:02.196Z,100753.06
2022-07-29T04:14:27.075Z,100747.69
2022-07-29T04:16:54.084Z,100752.28
2022-07-29T04:19:20.883Z,100746.09
2022-07-29T04:21:47.422Z,100748.84
2022-07-29T04:24:14.404Z,100753.84
2022-07-29T04:26:41.374Z,100757.06
2022-07-29T04:29:08.016Z,100756.78
2022-07-29T04:31:34.596Z,100758.84
2022-07-29T04:34:01.245Z,100757.56
2022-07-29T04:36:29.097Z,100762.47
2022-07-29T04:38:57.380Z,100757.19
2022-07-29T04:41:23.898Z,100769.50
2022-07-29T04:44:01.959Z,100769.84
2022-07-29T04:46:28.892Z,100761.50
2022-07-29T04:48:55.639Z,100760.06
2022-07-29T04:51:22.283Z,100763.25
2022-07-29T04:53:48.905Z,100753.06
2022-07-29T04:56:15.444Z,100758.44
2022-07-29T04:58:41.983Z,100760.09
2022-07-29T05:01:08.550Z,100767.34
2022-07-29T05:03:35.111Z,100768.88
2022-07-29T05:06:01.697Z,100769.16
2022-07-29T05:08:28.308Z,100767.63
2022-07-29T05:10:54.917Z,100766.91
2022-07-29T05:13:21.485Z,100758.50
2022-07-29T05:15:48.066Z,100765.31
2022-07-29T05:18:15.086Z,100776.66
2022-07-29T05:20:41.936Z,100779.94
2022-07-29T05:23:08.523Z,100785.53
2022-07-29T05:25:40.741Z,100788.91
2022-07-29T05:28:10.566Z,100785.63
2022-07-29T05:30:37.219Z,100787.69
2022-07-29T05:33:03.798Z,100788.63
2022-07-29T05:35:30.363Z,100792.34
2022-07-29T05:37:56.901Z,100787.03
2022-07-29T05:40:23.515Z,100791.16
2022-07-29T05:42:50.137Z,100783.66
2022-07-29T05:45:16.630Z,100788.34
2022-07-29T05:47:43.335Z,100794.81
2022-07-29T05:50:10.153Z,100792.13
2022-07-29T05:52:36.654Z,100790.75
2022-07-29T05:55:05.293Z,100804.94
2022-07-29T05:57:32.271Z,100799.94
2022-07-29T05:59:58.794Z,100802.81
2022-07-29T06:02:25.383Z,100806.06
2022-07-29T06:04:52.113Z,100807.78
2022-07-29T06:07:18.757Z,100808.81
2022-07-29T06:09:45.499Z,100812.44
2022-07-29T06:12:12.040Z,100808.50
2022-07-29T06:14:39.209Z,100803.19
2022-07-29T06:17:06.689Z,100815.88
2022-07-29T06:19:36.155Z,100810.56
2022-07-29T06:22:03.058Z,100817.41
2022-07-29T06:24:29.815Z,100814.09
2022-07-29T06:26:56.934Z,100817.88
2022-07-29T06:29:23.444Z,100819.88
2022-07-29T06:31:49.950Z,100824.00
2022-07-29T06:34:17.379Z,100824.41
2022-07-29T06:36:44.451Z,100822.44
2022-07-29T06:39:12.588Z,100822.34
2022-07-29T06:41:39.327Z,100819.09
2022-07-29T06:44:05.855Z,100824.63
2022-07-29T06:46:33.220Z,100818.47
2022-07-29T06:49:02.499Z,100823.81
2022-07-29T06:51:29.597Z,100818.47
2022-07-29T06:53:58.271Z,100824.28
2022-07-29T06:56:28.799Z,100825.03
2022-07-29T06:58:55.343Z,100824.56
2022-07-29T07:01:21.956Z,100817.22
2022-07-29T07:03:48.907Z,100819.41
2022-07-29T07:06:15.642Z,100822.59
2022-07-29T07:08:42.177Z,100829.44
2022-07-29T07:11:09.682Z,100831.16
2022-07-29T07:13:36.793Z,100823.13
2022-07-29T07:16:04.549Z,100824.59
2022-07-29T07:18:31.439Z,100832.97
2022-07-29T07:20:58.482Z,100831.16
2022-07-29T07:23:25.764Z,100832.31
2022-07-29T07:25:52.431Z,100840.38
2022-07-29T07:28:19.233Z,100833.22
2022-07-29T07:30:51.308Z,100843.63
2022-07-29T07:33:17.830Z,100842.38
2022-07-29T07:35:45.213Z,100840.19
2022-07-29T07:38:11.821Z,100835.97
2022-07-29T07:40:38.458Z,100829.66
2022-07-29T07:43:05.076Z,100827.81
2022-07-29T07:45:33.853Z,100835.00
2022-07-29T07:48:00.919Z,100835.25
2022-07-29T07:50:27.755Z,100840.16
2022-07-29T07:52:59.355Z,100843.34
2022-07-29T07:55:26.878Z,100847.72
2022-07-29T07:57:54.637Z,100854.50
2022-07-29T08:00:23.082Z,100849.59
2022-07-29T08:02:51.432Z,100842.06
2022-07-29T08:05:18.965Z,100835.91
2022-07-29T08:07:47.039Z,100844.22
2022-07-29T08:10:38.095Z,100832.81
2022-07-29T08:13:08.680Z,100844.28
2022-07-29T08:15:35.863Z,100839.34
2022-07-29T08:18:08.043Z,100840.94
2022-07-29T08:20:36.703Z,100842.72
2022-07-29T08:23:04.112Z,100844.50
2022-07-29T08:25:31.012Z,100850.59
2022-07-29T08:27:57.675Z,100847.22
2022-07-29T08:30:24.434Z,100843.44
2022-07-29T08:32:55.082Z,100837.88
2022-07-29T08:35:24.063Z,100838.53
2022-07-29T08:37:51.643Z,100843.94
2022-07-29T08:40:18.328Z,100833.28
2022-07-29T08:42:45.475Z,100837.84
2022-07-29T08:45:12.201Z,100838.28
2022-07-29T08:47:43.235Z,100835.75
2022-07-29T08:50:11.021Z,100837.19
2022-07-29T08:52:41.765Z,100835.38
2022-07-29T08:55:09.963Z,100835.88
2022-07-29T08:57:39.554Z,100836.94
2022-07-29T09:00:19.245Z,100832.75
2022-07-29T09:02:52.730Z,100828.13
2022-07-29T09:05:20.243Z,100833.53
2022-07-29T09:07:49.009Z,100839.06
2022-07-29T09:10:15.833Z,100837.75
2022-07-29T09:12:42.845Z,100835.25
2022-07-29T09:15:09.863Z,100832.38
2022-07-29T09:17:44.406Z,100837.25
2022-07-29T09:20:19.767Z,100836.75
2022-07-29T09:22:50.598Z,100830.31
2022-07-29T09:25:52.747Z,100843.06
2022-07-29T09:28:19.539Z,100840.63
2022-07-29T09:30:59.302Z,100840.31
2022-07-29T09:33:35.557Z,100841.06
2022-07-29T09:36:07.389Z,100823.19
2022-07-29T09:38:36.239Z,100821.84
2022-07-29T09:41:06.694Z,100818.78
2022-07-29T09:43:34.332Z,100820.56
2022-07-29T09:46:14.528Z,100824.00
2022-07-29T09:48:41.352Z,100817.03
2022-07-29T09:51:26.950Z,100824.56
2022-07-29T09:53:56.737Z,100828.41
2022-07-29T09:56:42.691Z,100835.53
2022-07-29T09:59:10.842Z,100827.91
2022-07-29T10:01:37.567Z,100820.75
2022-07-29T10:04:04.387Z,100828.41
2022-07-29T10:06:30.934Z,100829.00
2022-07-29T10:09:12.124Z,100831.88
2022-07-29T10:11:49.538Z,100828.50
2022-07-29T10:14:22.984Z,100838.19
2022-07-29T10:16:49.562Z,100832.22
2022-07-29T10:19:16.380Z,100829.19
2022-07-29T10:21:45.018Z,100821.28
2022-07-29T10:24:14.985Z,100826.06
2022-07-29T10:26:42.503Z,100836.72
2022-07-29T10:29:09.055Z,100830.50
2022-07-29T10:32:20.571Z,100823.97
2022-07-29T10:34:58.756Z,100824.28
2022-07-29T10:37:45.792Z,100827.09
2022-07-29T10:40:53.199Z,100832.13
2022-07-29T10:43:27.434Z,100822.56
2022-07-29T10:45:59.367Z,100821.22
2022-07-29T10:48:26.471Z,100828.31
2022-07-29T10:51:01.478Z,100825.50
2022-07-29T10:53:54.010Z,100819.41
2022-07-29T10:56:25.591Z,100818.06
2022-07-29T10:59:24.022Z,100821.63
2022-07-29T11:01:56.713Z,100804.56
2022-07-29T11:04:44.805Z,100820.81
2022-07-29T11:07:12.331Z,100814.44
2022-07-29T11:09:39.616Z,100812.50
2022-07-29T11:12:38.863Z,100812.81
2022-07-29T11:15:09.463Z,100824.09
2022-07-29T11:17:53.939Z,100815.31
2022-07-29T11:20:39.798Z,100816.06
2022-07-29T11:23:27.532Z,100813.47
2022-07-29T11:26:23.356Z,100824.94
2022-07-29T11:29:15.368Z,100815.81
2022-07-29T11:31:47.462Z,100805.47
2022-07-29T11:34:41.563Z,100806.53
2022-07-29T11:37:11.414Z,100809.25
2022-07-29T11:39:47.476Z,100804.69
2022-07-29T11:42:32.203Z,100804.38
2022-07-29T11:45:42.466Z,100808.69
2022-07-29T11:48:28.913Z,100794.75
2022-07-29T11:50:53.495Z,100796.06
2022-07-29T11:53:20.461Z,100801.00
2022-07-29T11:55:55.513Z,100799.28
2022-07-29T11:58:26.146Z,100794.19
2022-07-29T12:00:52.955Z,100796.81
2022-07-29T12:06:15.037Z,100789.78
2022-07-29T12:08:44.206Z,100794.66
2022-07-29T12:11:20.857Z,100786.22
2022-07-29T12:13:49.326Z,100788.47
2022-07-29T12:16:16.437Z,100794.69
2022-07-29T12:19:03.859Z,100780.19
2022-07-29T12:21:45.710Z,100783.59
2022-07-29T12:24:20.210Z,100780.91
2022-07-29T12:26:54.179Z,100784.31
2022-07-29T12:29:34.623Z,100787.84
2022-07-29T12:32:04.069Z,100779.44
2022-07-29T12:34:31.772Z,100773.50
2022-07-29T12:36:58.501Z,100773.94
2022-07-29T12:39:27.467Z,100772.78
2022-07-29T12:42:04.513Z,100777.41
2022-07-29T12:44:48.659Z,100773.19
2022-07-29T12:47:16.301Z,100769.09
2022-07-29T12:49:42.868Z,100775.34
2022-07-29T12:52:25.255Z,100773.28
2022-07-29T12:54:52.270Z,100774.63
2022-07-29T12:57:20.345Z,100775.28
2022-07-29T13:00:11.629Z,100787.22
2022-07-29T13:02:39.536Z,100783.91
2022-07-29T13:05:09.147Z,100777.66
2022-07-29T13:07:54.148Z,100773.63
2022-07-29T13:10:24.388Z,100775.66
2022-07-29T13:13:11.244Z,100781.69
2022-07-29T13:15:43.644Z,100782.59
2022-07-29T13:18:29.199Z,100777.22
2022-07-29T13:20:56.237Z,100776.78
2022-07-29T13:23:23.230Z,100781.28
2022-07-29T13:25:50.187Z,100777.66
2022-07-29T13:28:17.501Z,100783.50
2022-07-29T13:30:44.850Z,100778.59
2022-07-29T13:33:11.846Z,100770.66
2022-07-29T13:35:39.954Z,100776.53
2022-07-29T13:38:06.826Z,100767.06
2022-07-29T13:40:34.827Z,100766.47
2022-07-29T13:43:01.371Z,100769.22
2022-07-29T13:45:29.019Z,100769.44
2022-07-29T13:47:55.752Z,100767.06
2022-07-29T13:50:22.323Z,100762.19
2022-07-29T13:52:49.521Z,100770.16
2022-07-29T13:55:16.206Z,100766.28
2022-07-29T13:57:42.718Z,100763.38
2022-07-29T14:00:10.239Z,100767.44
2022-07-29T14:02:37.246Z,100764.72
2022-07-29T14:05:08.399Z,100754.53
2022-07-29T14:07:35.269Z,100754.19
2022-07-29T14:10:01.845Z,100752.09
2022-07-29T14:12:28.385Z,100739.44
2022-07-29T14:14:54.916Z,100731.50
2022-07-29T14:17:21.606Z,100739.81
2022-07-29T14:19:48.220Z,100742.13
2022-07-29T14:22:14.787Z,100744.63
2022-07-29T14:24:41.682Z,100742.75
2022-07-29T14:27:09.568Z,100750.34
2022-07-29T14:29:37.976Z,100742.59
2022-07-29T14:32:09.951Z,100746.47
2022-07-29T14:34:37.787Z,100749.34
2022-07-29T14:37:06.776Z,100754.78
2022-07-29T14:39:36.073Z,100762.00
2022-07-29T14:42:06.375Z,100749.56
2022-07-29T14:44:32.982Z,100740.16
2022-07-29T14:47:00.829Z,100746.50
2022-07-29T14:49:30.559Z,100751.81
2022-07-29T14:51:57.315Z,100751.56
2022-07-29T14:54:24.103Z,100742.56
2022-07-29T14:56:51.871Z,100756.31
2022-07-29T14:59:18.409Z,100748.09
2022-07-29T15:01:44.972Z,100747.91
2022-07-29T15:04:11.482Z,100747.03
2022-07-29T15:06:38.879Z,100743.38
2022-07-29T15:09:05.659Z,100750.84
2022-07-29T15:11:32.374Z,100743.16
2022-07-29T15:14:05.197Z,100736.63
2022-07-29T15:16:31.751Z,100738.25
2022-07-29T15:19:01.416Z,100733.28
2022-07-29T15:21:28.286Z,100737.94
2022-07-29T15:23:54.846Z,100746.09
2022-07-29T15:26:21.421Z,100734.63
2022-07-29T15:28:49.113Z,100740.84
2022-07-29T15:31:16.064Z,100732.88
2022-07-29T15:33:42.816Z,100739.25
2022-07-29T15:36:09.680Z,100730.97
2022-07-29T15:38:36.290Z,100740.34
2022-07-29T15:41:08.672Z,100738.75
2022-07-29T15:43:36.221Z,100744.81
2022-07-29T15:46:21.640Z,100741.00
2022-07-29T15:48:48.451Z,100736.38
2022-07-29T15:51:15.266Z,100740.81
2022-07-29T15:53:41.959Z,100734.94
2022-07-29T15:56:08.530Z,100734.19
2022-07-29T15:58:35.075Z,100729.34
2022-07-29T16:01:01.848Z,100727.97
2022-07-29T16:03:28.572Z,100727.22
2022-07-29T16:05:55.183Z,100726.75
2022-07-29T16:08:21.742Z,100725.00
2022-07-29T16:10:48.367Z,100723.06
2022-07-29T16:13:17.062Z,100723.06
2022-07-29T16:15:45.346Z,100724.19
2022-07-29T16:18:30.573Z,100710.16
2022-07-29T16:20:57.693Z,100711.41
2022-07-29T16:23:24.774Z,100714.91
2022-07-29T16:26:00.477Z,100708.34
2022-07-29T16:28:28.598Z,100715.91
2022-07-29T16:30:55.212Z,100708.56
2022-07-29T16:33:21.906Z,100706.19
2022-07-29T16:35:48.409Z,100705.09
2022-07-29T16:38:15.083Z,100702.19
2022-07-29T16:40:42.139Z,100704.94
2022-07-29T16:43:09.318Z,100704.81
2022-07-29T16:45:42.559Z,100706.31
2022-07-29T16:48:12.593Z,100707.31
2022-07-29T16:50:39.867Z,100700.91
2022-07-29T16:53:14.666Z,100703.50
2022-07-29T16:55:42.296Z,100706.88
2022-07-29T16:58:09.856Z,100703.84
2022-07-29T17:00:36.783Z,100705.06
2022-07-29T17:03:03.833Z,100710.50
2022-07-29T17:05:30.341Z,100694.25
2022-07-29T17:08:17.054Z,100696.63
2022-07-29T17:10:43.681Z,100698.38
2022-07-29T17:13:10.241Z,100696.78
2022-07-29T17:15:36.817Z,100691.66
2022-07-29T17:18:12.647Z,100693.88
2022-07-29T17:20:41.796Z,100698.56
2022-07-29T17:23:08.351Z,100694.72
2022-07-29T17:25:34.957Z,100691.53
2022-07-29T17:28:01.618Z,100688.66
2022-07-29T17:30:29.165Z,100684.69
2022-07-29T17:32:55.977Z,100689.03
2022-07-29T17:35:41.174Z,100676.09
2022-07-29T17:38:07.790Z,100678.75
2022-07-29T17:40:34.357Z,100676.06
2022-07-29T17:43:00.928Z,100681.94
2022-07-29T17:45:50.017Z,100676.50
2022-07-29T17:48:14.457Z,100685.13
2022-07-29T17:50:41.537Z,100677.81
2022-07-29T17:53:09.546Z,100687.25
2022-07-29T17:55:45.366Z,100685.50
2022-07-29T17:58:12.468Z,100691.41
2022-07-29T18:00:39.466Z,100696.84
2022-07-29T18:03:06.381Z,100688.25
2022-07-29T18:05:33.094Z,100690.31
2022-07-29T18:07:59.771Z,100684.56
2022-07-29T18:10:26.663Z,100692.88
2022-07-29T18:12:53.332Z,100694.94
2022-07-29T18:15:20.026Z,100692.88
2022-07-29T18:17:56.611Z,100693.84
2022-07-29T18:20:24.040Z,100693.19
2022-07-29T18:22:51.247Z,100695.25
2022-07-29T18:25:17.767Z,100690.13
2022-07-29T18:27:44.506Z,100691.88
2022-07-29T18:30:11.243Z,100689.50
2022-07-29T18:32:37.882Z,100698.59
2022-07-29T18:35:05.866Z,100692.22
2022-07-29T18:38:01.497Z,100692.38
2022-07-29T18:40:21.124Z,100690.47
2022-07-29T18:42:48.475Z,100682.16
2022-07-29T18:45:19.691Z,100685.13
2022-07-29T18:47:47.424Z,100684.97
2022-07-29T18:50:14.805Z,100682.88
2022-07-29T18:52:41.842Z,100678.25
2022-07-29T18:55:08.714Z,100679.53
2022-07-29T18:57:55.215Z,100672.53
2022-07-29T19:00:22.744Z,100683.22
2022-07-29T19:02:49.975Z,100681.28
2022-07-29T19:05:16.714Z,100677.59
2022-07-29T19:07:43.507Z,100679.53
2022-07-29T19:10:11.286Z,100674.22
2022-07-29T19:15:04.765Z,100678.22
2022-07-29T19:17:31.445Z,100680.28
2022-07-29T19:19:58.155Z,100680.22
2022-07-29T19:22:24.847Z,100684.66
2022-07-29T19:24:51.726Z,100688.31
2022-07-29T19:27:18.352Z,100693.63
2022-07-29T19:29:44.895Z,100685.00
2022-07-29T19:32:12.293Z,100689.75
2022-07-29T19:34:38.838Z,100685.59
2022-07-29T19:37:13.034Z,100679.69
2022-07-29T19:39:39.560Z,100683.31
2022-07-29T19:42:06.265Z,100680.41
2022-07-29T19:44:32.839Z,100674.00
2022-07-29T19:47:00.691Z,100679.56
2022-07-29T19:49:27.620Z,100679.84
2022-07-29T19:51:54.395Z,100673.81
2022-07-29T19:54:20.956Z,100671.38
2022-07-29T19:56:47.547Z,100675.19
2022-07-29T19:59:14.773Z,100675.91
2022-07-29T20:01:41.422Z,100671.16
2022-07-29T20:04:08.070Z,100669.84
2022-07-29T20:06:35.152Z,100672.56
2022-07-29T20:09:01.801Z,100675.09
2022-07-29T20:11:29.794Z,100677.16
2022-07-29T20:13:56.539Z,100676.19
2022-07-29T20:16:23.075Z,100672.97
2022-07-29T20:18:53.511Z,100679.94
2022-07-29T20:21:20.030Z,100679.47
2022-07-29T20:23:46.880Z,100691.19
2022-07-29T20:26:13.866Z,100685.78
2022-07-29T20:28:40.450Z,100692.22
2022-07-29T20:31:07.215Z,100687.84
2022-07-29T20:33:33.836Z,100686.34
2022-07-29T20:36:00.497Z,100678.88
2022-07-29T20:38:28.453Z,100684.97
2022-07-29T20:40:58.575Z,100682.72
2022-07-29T20:43:26.207Z,100684.22
2022-07-29T20:45:52.853Z,100691.16
2022-07-29T20:48:19.444Z,100702.75
2022-07-29T20:50:47.575Z,100697.66
2022-07-29T20:53:15.174Z,100701.75
2022-07-29T20:55:41.834Z,100698.91
2022-07-29T20:58:08.705Z,100702.66
2022-07-29T21:00:35.756Z,100704.78
2022-07-29T21:03:02.305Z,100704.88
2022-07-29T21:05:28.945Z,100710.47
2022-07-29T21:07:58.174Z,100709.50
2022-07-29T21:10:25.683Z,100711.19
2022-07-29T21:12:52.221Z,100710.66
2022-07-29T21:15:20.773Z,100707.59
2022-07-29T21:17:48.228Z,100707.88
2022-07-29T21:20:16.694Z,100709.84
2022-07-29T21:22:43.649Z,100699.06
2022-07-29T21:25:10.990Z,100705.56
2022-07-29T21:27:56.589Z,100698.84
2022-07-29T21:30:23.291Z,100702.16
2022-07-29T21:32:49.946Z,100695.16
2022-07-29T21:35:30.229Z,100690.69
2022-07-29T21:38:03.310Z,100688.56
2022-07-29T21:40:30.540Z,100695.38
2022-07-29T21:42:57.088Z,100691.38
2022-07-29T21:45:25.587Z,100687.28
2022-07-29T21:47:52.123Z,100689.88
2022-07-29T21:50:18.897Z,100687.59
2022-07-29T21:52:45.430Z,100688.19
2022-07-29T21:55:12.486Z,100687.47
2022-07-29T21:57:39.108Z,100685.28
2022-07-29T22:00:08.354Z,100681.91
2022-07-29T22:02:34.888Z,100679.47
2022-07-29T22:05:01.478Z,100680.47
2022-07-29T22:07:54.681Z,100677.47
2022-07-29T22:10:15.425Z,100686.78
2022-07-29T22:12:41.966Z,100684.94
2022-07-29T22:15:08.854Z,100684.47
2022-07-29T22:17:37.240Z,100683.06
2022-07-29T22:20:04.819Z,100684.06
2022-07-29T22:22:31.634Z,100679.47
2022-07-29T22:24:58.363Z,100680.97
2022-07-29T22:27:24.889Z,100690.94
2022-07-29T22:29:51.503Z,100688.63
2022-07-29T22:32:18.254Z,100688.38
2022-07-29T22:34:44.786Z,100688.78
2022-07-29T22:37:11.328Z,100684.25
2022-07-29T22:39:37.918Z,100684.16
2022-07-29T22:42:04.823Z,100681.63
2022-07-29T22:44:31.450Z,100680.47
2022-07-29T22:46:58.385Z,100682.81
2022-07-29T22:49:25.188Z,100679.75
2022-07-29T22:51:51.913Z,100689.16
2022-07-29T22:54:18.583Z,100682.03
2022-07-29T22:56:45.150Z,100680.72
2022-07-29T22:59:11.691Z,100676.34
2022-07-29T23:01:38.384Z,100672.13
2022-07-29T23:04:06.026Z,100662.75
2022-07-29T23:06:32.713Z,100664.88
2022-07-29T23:08:59.389Z,100663.53
2022-07-29T23:11:25.947Z,100664.44
2022-07-29T23:13:52.538Z,100667.06
2022-07-29T23:16:26.433Z,100672.69
2022-07-29T23:18:53.995Z,100671.34
2022-07-29T23:21:20.983Z,100663.97
2022-07-29T23:23:48.510Z,100667.31
2022-07-29T23:26:16.865Z,100663.41
2022-07-29T23:28:44.727Z,100668.28
2022-07-29T23:31:11.795Z,100669.72
2022-07-29T23:33:38.339Z,100669.91
2022-07-29T23:36:04.993Z,100678.69
2022-07-29T23:38:31.532Z,100673.09
2022-07-29T23:40:58.817Z,100667.88
2022-07-29T23:43:25.374Z,100665.66
2022-07-29T23:45:53.644Z,100659.06
2022-07-29T23:48:20.823Z,100659.72
2022-07-29T23:50:47.497Z,100655.34
2022-07-29T23:53:14.115Z,100653.22
2022-07-29T23:55:40.921Z,100640.28
2022-07-29T23:58:07.575Z,100634.25
